Time;durP1;ratioP1;P1;durP2;ratioP2;P2;SDS_P1;SDS_P2;PMS_P1;PMS_P2;Temp;Humidity;BMP_temperature;BMP_pressure;BME280_temperature;BME280_humidity;BME280_pressure;Samples;Min_cycle;Max_cycle;Signal;HPM_P1;HPM_P2
2023/04/12 00:00:54;;;;;;;2.92;1.30;;;11.70;99.90;;;11.79;87.71;100214.31;5142361;28;20559;-71
2023/04/12 00:03:27;;;;;;;3.22;1.42;;;11.70;99.90;;;11.79;88.63;100200.41;5142277;28;20074;-72
2023/04/12 00:06:02;;;;;;;5.78;1.60;;;11.70;99.90;;;11.78;89.42;100196.03;5141087;28;20542;-71
2023/04/12 00:08:34;;;;;;;5.07;1.67;;;11.70;99.90;;;11.72;89.68;100190.69;5142075;28;20050;-70
2023/04/12 00:11:06;;;;;;;2.25;1.20;;;11.70;99.90;;;11.72;90.19;100183.72;5142133;28;20046;-70
2023/04/12 00:13:38;;;;;;;3.13;1.33;;;11.70;99.90;;;11.75;90.97;100180.31;5142666;28;20052;-71
2023/04/12 00:16:14;;;;;;;2.65;1.50;;;11.70;99.90;;;11.77;90.95;100170.78;5142014;28;20526;-70
2023/04/12 00:18:47;;;;;;;3.25;1.05;;;11.70;99.90;;;11.81;90.75;100165.69;5141188;28;20069;-71
2023/04/12 00:21:19;;;;;;;4.18;1.20;;;11.70;99.90;;;11.83;90.01;100163.09;5142684;28;20419;-71
2023/04/12 00:23:51;;;;;;;4.90;1.52;;;11.70;99.90;;;11.85;89.90;100158.78;5142218;28;20047;-72
2023/04/12 00:26:25;;;;;;;1.30;0.95;;;11.70;99.90;;;11.85;89.89;100164.00;5142277;28;20122;-73
2023/04/12 00:28:57;;;;;;;2.72;1.10;;;11.70;99.90;;;11.80;89.41;100160.38;5140582;28;20153;-71
2023/04/12 00:31:30;;;;;;;3.38;1.10;;;11.70;99.90;;;11.85;88.07;100148.34;5143609;28;20141;-70
2023/04/12 00:34:03;;;;;;;3.35;1.00;;;11.80;99.90;;;11.85;88.92;100145.72;5146400;28;20085;-70
2023/04/12 00:36:35;;;;;;;2.65;1.40;;;11.70;99.90;;;11.87;88.54;100133.59;5144813;28;20150;-70
2023/04/12 00:39:08;;;;;;;3.65;1.48;;;11.80;99.90;;;11.86;88.37;100130.06;5146234;28;20439;-70
2023/04/12 00:41:40;;;;;;;4.03;1.20;;;11.80;99.90;;;11.79;89.35;100117.72;5146220;28;20051;-72
2023/04/12 00:44:13;;;;;;;2.85;1.33;;;11.80;99.90;;;11.77;90.03;100113.31;5144702;28;20109;-71
2023/04/12 00:46:46;;;;;;;2.50;1.15;;;11.70;99.90;;;11.81;90.26;100110.84;5145601;28;20049;-71
2023/04/12 00:49:19;;;;;;;2.08;0.85;;;11.70;99.90;;;11.77;89.85;100102.88;5138659;28;20053;-71
2023/04/12 00:51:51;;;;;;;1.50;0.90;;;11.70;99.90;;;11.69;90.65;100098.41;5144289;28;20109;-71
2023/04/12 00:54:24;;;;;;;2.08;1.00;;;11.70;99.90;;;11.63;91.23;100089.56;5145925;28;20501;-71
2023/04/12 00:56:57;;;;;;;1.60;1.00;;;11.60;99.90;;;11.59;92.64;100088.63;5143895;28;20050;-72
2023/04/12 00:59:30;;;;;;;2.10;0.90;;;11.60;99.90;;;11.55;92.42;100076.38;5144406;28;20053;-71
2023/04/12 01:02:03;;;;;;;4.57;1.08;;;11.50;99.90;;;11.55;92.61;100073.78;5144186;28;20035;-71
2023/04/12 01:04:36;;;;;;;2.75;1.10;;;11.50;99.90;;;11.53;93.23;100070.22;5146018;28;20043;-72
2023/04/12 01:07:19;;;;;;;1.10;0.93;;;11.50;99.90;;;11.55;94.43;100075.50;5143764;28;20174;-71
2023/04/12 01:10:08;;;;;;;2.63;1.10;;;11.50;99.90;;;11.53;95.38;100062.41;5144032;28;20069;-71
2023/04/12 01:12:50;;;;;;;1.23;0.88;;;11.50;99.90;;;11.52;96.04;100050.19;5144411;28;20554;-70
2023/04/12 01:15:25;;;;;;;2.28;1.05;;;11.50;99.90;;;11.50;96.49;100051.03;5137370;28;20043;-72
2023/04/12 01:18:04;;;;;;;2.50;1.20;;;11.50;99.90;;;11.44;96.28;100041.34;5143092;28;20042;-71
2023/04/12 01:20:47;;;;;;;3.67;1.00;;;11.40;99.90;;;11.38;96.73;100043.84;5145548;28;20034;-71
2023/04/12 01:23:52;;;;;;;3.20;1.48;;;11.30;99.90;;;11.34;97.74;100028.97;5146233;28;20451;-71
2023/04/12 01:26:36;;;;;;;2.13;1.30;;;11.30;99.90;;;11.34;98.54;100028.97;5140293;28;20042;-71
2023/04/12 01:29:14;;;;;;;4.22;1.30;;;11.30;99.90;;;11.27;97.95;100025.34;5145378;28;20043;-71
2023/04/12 01:31:54;;;;;;;4.05;1.25;;;11.20;99.90;;;11.24;98.37;100016.59;5145479;28;20077;-72
2023/04/12 01:34:31;;;;;;;2.10;1.20;;;11.20;99.90;;;11.20;99.01;100018.25;5139349;28;20031;-71
2023/04/12 01:37:05;;;;;;;3.03;1.20;;;11.20;99.90;;;11.20;99.87;100009.56;5143685;28;20051;-71
2023/04/12 01:39:37;;;;;;;3.75;1.40;;;11.10;99.90;;;11.16;100.00;100012.97;5144356;28;20051;-71
2023/04/12 01:42:09;;;;;;;3.67;1.20;;;11.10;99.90;;;11.12;100.00;99997.25;5142741;28;20055;-72
2023/04/12 01:44:43;;;;;;;2.55;0.93;;;11.10;99.90;;;11.09;100.00;100002.41;5145294;28;20400;-71
2023/04/12 01:47:15;;;;;;;1.85;0.90;;;11.00;99.90;;;11.09;100.00;100001.53;5143203;28;20130;-71
2023/04/12 01:49:56;;;;;;;2.75;1.27;;;11.10;99.90;;;10.98;100.00;99988.28;5143993;28;20046;-71
2023/04/12 01:52:31;;;;;;;;;;;11.00;99.90;;;10.94;100.00;99973.41;5139193;28;20114;-72
2023/04/12 01:55:06;;;;;;;1.60;1.02;;;10.90;99.90;;;10.91;100.00;99970.75;5143383;28;19929;-71
2023/04/12 01:57:40;;;;;;;4.60;1.13;;;10.90;99.90;;;10.87;100.00;99959.38;5143613;28;20047;-71
2023/04/12 02:00:16;;;;;;;3.20;1.20;;;10.90;99.90;;;10.78;100.00;99950.50;5143529;28;20089;-71
2023/04/12 02:02:48;;;;;;;5.47;1.50;;;10.80;99.90;;;10.63;100.00;99943.25;5140034;28;20464;-70
2023/04/12 02:05:20;;;;;;;4.13;1.20;;;10.70;99.90;;;10.56;100.00;99937.03;5137280;28;20049;-72
2023/04/12 02:07:52;;;;;;;2.75;1.27;;;10.70;99.90;;;10.41;100.00;99933.19;5144248;28;20443;-71
2023/04/12 02:10:32;;;;;;;3.35;1.10;;;10.50;99.90;;;10.37;100.00;99929.66;5145310;28;20054;-71
2023/04/12 02:13:04;;;;;;;3.20;1.75;;;10.50;99.90;;;10.36;100.00;99925.25;5144751;28;20125;-71
2023/04/12 02:15:39;;;;;;;5.03;1.20;;;10.40;99.90;;;10.27;100.00;99915.53;5143643;28;20093;-70
2023/04/12 02:18:12;;;;;;;5.88;1.88;;;10.40;99.90;;;10.21;100.00;99917.09;5143867;28;20082;-71
2023/04/12 02:20:45;;;;;;;3.58;1.60;;;10.30;99.90;;;10.16;100.00;99901.34;5143406;28;20058;-71
2023/04/12 02:23:17;;;;;;;6.53;1.80;;;10.30;99.90;;;10.16;100.00;99898.75;5143448;28;20404;-72
2023/04/12 02:25:49;;;;;;;1.75;1.17;;;10.30;99.90;;;10.20;100.00;99891.91;5142979;28;20066;-72
2023/04/12 02:28:22;;;;;;;3.72;1.13;;;10.30;99.90;;;10.11;100.00;99881.28;5135092;28;20035;-70
2023/04/12 02:30:56;;;;;;;3.50;1.30;;;10.20;99.90;;;10.06;100.00;99887.25;5142875;28;20053;-71
2023/04/12 02:33:29;;;;;;;5.93;1.30;;;10.20;99.90;;;9.96;100.00;99885.28;5142570;28;20567;-70
2023/04/12 02:36:04;;;;;;;3.17;1.50;;;10.10;99.90;;;9.94;100.00;99876.56;5144415;28;20093;-71
2023/04/12 02:38:36;;;;;;;3.97;0.95;;;10.10;99.90;;;9.99;100.00;99884.50;5142039;28;20451;-72
2023/04/12 02:41:17;;;;;;;7.10;1.60;;;10.10;99.90;;;9.94;100.00;99871.38;5142997;28;20043;-71
2023/04/12 02:43:50;;;;;;;2.40;1.30;;;10.00;99.90;;;9.89;100.00;99862.56;5142941;28;20467;-71
2023/04/12 02:46:26;;;;;;;3.70;1.33;;;10.00;99.90;;;9.91;100.00;99867.78;5135235;28;20523;-71
2023/04/12 02:49:02;;;;;;;4.13;1.15;;;10.00;99.90;;;9.85;100.00;99845.13;5153894;28;20102;-72
2023/04/12 02:51:42;;;;;;;7.28;1.60;;;9.90;99.90;;;9.80;100.00;99846.75;5142907;28;20153;-72
2023/04/12 02:54:15;;;;;;;3.83;1.38;;;9.90;99.90;;;9.79;100.00;99834.59;5142091;28;20053;-70
2023/04/12 02:57:00;;;;;;;3.42;1.20;;;9.90;99.90;;;9.68;100.00;99815.25;5142431;28;20452;-72
2023/04/12 02:59:40;;;;;;;4.57;1.25;;;9.80;99.90;;;9.69;100.00;99809.19;5142376;28;20058;-71
2023/04/12 03:02:31;;;;;;;3.25;1.20;;;9.80;99.90;;;9.63;100.00;99803.84;5135743;28;20057;-71
2023/04/12 03:05:09;;;;;;;8.02;1.75;;;9.80;99.90;;;9.57;100.00;99806.31;5143922;28;20046;-71
2023/04/12 03:07:47;;;;;;;2.75;1.30;;;9.70;99.90;;;9.51;100.00;99792.31;5142075;28;20066;-70
2023/04/12 03:10:23;;;;;;;4.20;1.75;;;9.70;99.90;;;9.48;100.00;99781.84;5134641;28;20411;-71
2023/04/12 03:13:07;;;;;;;4.40;1.25;;;9.70;99.90;;;9.46;100.00;99777.47;5142294;28;20050;-71
2023/04/12 03:15:42;;;;;;;4.53;2.40;;;9.60;99.90;;;9.48;100.00;99768.84;5143801;28;20038;-71
2023/04/12 03:18:19;;;;;;;5.75;3.47;;;9.60;99.90;;;9.44;100.00;99774.81;5141039;28;20125;-71
2023/04/12 03:20:55;;;;;;;4.22;2.40;;;9.60;99.90;;;9.38;100.00;99752.97;5141936;28;20114;-71
2023/04/12 03:23:27;;;;;;;3.83;2.10;;;9.50;99.90;;;9.42;100.00;99750.50;5143416;28;20041;-71
2023/04/12 03:26:11;;;;;;;2.88;1.88;;;9.60;99.90;;;9.41;100.00;99740.94;5142077;28;20148;-72
2023/04/12 03:28:44;;;;;;;2.67;1.35;;;9.60;99.90;;;9.42;100.00;99736.59;5141536;28;20035;-72
2023/04/12 03:31:19;;;;;;;6.72;2.30;;;9.50;99.90;;;9.39;100.00;99732.22;5142118;28;20103;-71
2023/04/12 03:33:53;;;;;;;6.45;3.25;;;9.50;99.90;;;9.37;100.00;99728.69;5141648;28;20423;-71
2023/04/12 03:36:30;;;;;;;5.20;2.10;;;9.50;99.90;;;9.38;100.00;99708.75;5134522;28;20043;-71
2023/04/12 03:39:13;;;;;;;5.05;1.88;;;9.50;99.90;;;9.39;100.00;99701.00;5141817;28;20054;-72
2023/04/12 03:41:46;;;;;;;4.00;1.85;;;9.50;99.90;;;9.41;100.00;99698.44;5141824;28;20117;-71
2023/04/12 03:44:20;;;;;;;3.65;1.77;;;9.50;99.90;;;9.39;100.00;99695.81;5141733;28;20125;-70
2023/04/12 03:46:53;;;;;;;4.70;2.63;;;9.50;99.90;;;9.37;100.00;99688.81;5140986;28;20046;-71
2023/04/12 03:49:27;;;;;;;5.55;2.05;;;9.50;99.90;;;9.29;100.00;99675.63;5141704;28;20093;-73
2023/04/12 03:51:59;;;;;;;4.75;2.53;;;9.50;99.90;;;9.22;100.00;99669.41;5141808;28;20061;-72
2023/04/12 03:54:31;;;;;;;6.75;2.50;;;9.40;99.90;;;9.23;100.00;99671.16;5142205;28;20622;-71
2023/04/12 03:57:07;;;;;;;5.78;2.53;;;9.40;99.90;;;9.21;100.00;99664.19;5142730;28;20447;-71
2023/04/12 03:59:46;;;;;;;4.10;2.33;;;9.40;99.90;;;9.13;100.00;99660.56;5141515;28;20041;-70
2023/04/12 04:02:19;;;;;;;6.15;2.03;;;9.30;99.90;;;9.17;100.00;99646.75;5144966;28;20411;-71
2023/04/12 04:04:56;;;;;;;4.60;1.98;;;9.30;99.90;;;9.13;100.00;99640.63;5141112;28;20043;-71
2023/04/12 04:07:33;;;;;;;6.15;2.10;;;9.30;99.90;;;9.15;100.00;99627.66;5141021;28;20046;-70
2023/04/12 04:10:06;;;;;;;5.60;2.20;;;9.30;99.90;;;9.15;100.00;99635.47;5142667;28;20046;-71
2023/04/12 04:12:42;;;;;;;4.93;2.15;;;9.30;99.90;;;9.17;100.00;99605.16;5141627;28;20311;-71
2023/04/12 04:15:17;;;;;;;4.70;2.45;;;9.30;99.90;;;9.20;100.00;99606.13;5141365;28;20047;-71
2023/04/12 04:17:53;;;;;;;6.18;3.33;;;9.30;99.90;;;9.21;100.00;99589.66;5153823;23;20043;-72
2023/04/12 04:20:27;;;;;;;5.85;2.78;;;9.30;99.90;;;9.27;100.00;99608.84;5139152;28;20470;-72
2023/04/12 04:22:59;;;;;;;6.65;2.97;;;9.30;99.90;;;9.25;100.00;99595.78;5140980;28;20069;-72
2023/04/12 04:25:32;;;;;;;5.22;2.80;;;9.40;99.90;;;9.27;100.00;99588.91;5142956;28;20046;-65
2023/04/12 04:28:08;;;;;;;4.28;2.40;;;9.40;99.90;;;9.27;100.00;99583.72;5141476;28;20068;-66
2023/04/12 04:30:40;;;;;;;7.20;2.55;;;9.40;99.90;;;9.22;100.00;99580.13;5141280;28;20042;-66
2023/04/12 04:33:18;;;;;;;4.55;2.03;;;9.40;99.90;;;9.20;100.00;99572.31;5133517;28;20133;-65
2023/04/12 04:35:55;;;;;;;5.75;2.40;;;9.30;99.90;;;9.19;100.00;99564.47;5141548;28;20047;-67
2023/04/12 04:38:32;;;;;;;6.82;2.40;;;9.30;99.90;;;9.20;100.00;99566.25;5141235;28;20031;-66
2023/04/12 04:41:23;;;;;;;6.57;3.10;;;9.40;99.90;;;9.20;100.00;99555.84;5125649;28;20516;-66
2023/04/12 04:44:08;;;;;;;3.05;1.83;;;9.30;99.90;;;9.19;100.00;99552.38;5132642;28;20483;-66
2023/04/12 04:46:41;;;;;;;5.13;2.40;;;9.30;99.90;;;9.17;100.00;99547.97;5128437;28;20035;-65
2023/04/12 04:49:14;;;;;;;3.50;1.83;;;9.30;99.90;;;9.15;100.00;99557.47;5134840;28;20087;-65
2023/04/12 04:51:49;;;;;;;4.05;1.65;;;9.30;99.90;;;9.26;100.00;99558.56;5126866;28;20537;-66
2023/04/12 04:54:22;;;;;;;;;;;9.40;99.90;;;9.33;100.00;99555.25;5131336;28;20093;-66
2023/04/12 04:56:55;;;;;;;3.70;2.28;;;9.40;99.90;;;9.30;100.00;99555.16;5149214;28;20013;-65
2023/04/12 04:59:28;;;;;;;3.40;2.20;;;9.40;99.90;;;9.30;100.00;99543.88;5129194;28;20039;-65
2023/04/12 05:02:16;;;;;;;3.67;2.78;;;9.40;99.90;;;9.26;100.00;99540.38;5137324;28;20396;-66
2023/04/12 05:04:50;;;;;;;4.60;2.97;;;9.40;99.90;;;9.27;100.00;99538.66;5129452;28;20043;-66
2023/04/12 05:07:27;;;;;;;3.05;2.63;;;9.40;99.90;;;9.28;100.00;99543.00;5124742;28;20039;-67
2023/04/12 05:10:00;;;;;;;3.47;2.22;;;9.40;99.90;;;9.29;100.00;99537.81;5141282;28;20062;-65
2023/04/12 05:12:33;;;;;;;3.05;1.92;;;9.40;99.90;;;9.33;100.00;99526.63;5128715;28;20075;-65
2023/04/12 05:15:08;;;;;;;3.42;1.90;;;9.40;99.90;;;9.32;100.00;99535.25;5137097;28;20051;-66
2023/04/12 05:17:40;;;;;;;2.83;2.13;;;9.40;99.90;;;9.35;100.00;99530.13;5137637;28;20051;-66
2023/04/12 05:20:13;;;;;;;4.53;2.13;;;9.40;99.90;;;9.35;100.00;99530.13;5128608;28;20452;-67
2023/04/12 05:22:47;;;;;;;4.93;2.28;;;9.50;99.90;;;9.36;100.00;99521.47;5138566;28;20055;-67
2023/04/12 05:25:20;;;;;;;4.45;2.53;;;9.50;99.90;;;9.29;100.00;99514.41;5125033;28;20039;-67
2023/04/12 05:28:00;;;;;;;3.47;2.08;;;9.40;99.90;;;9.24;100.00;99516.91;5140769;28;20508;-68
2023/04/12 05:30:32;;;;;;;4.07;1.92;;;9.40;99.90;;;9.21;100.00;99505.59;5130313;28;20121;-67
2023/04/12 05:33:04;;;;;;;5.57;2.47;;;9.40;99.90;;;9.24;100.00;99505.63;5135702;28;20039;-69
2023/04/12 05:35:37;;;;;;;3.50;2.03;;;9.30;99.90;;;9.21;100.00;99492.59;5144084;28;20042;-70
2023/04/12 05:38:10;;;;;;;2.63;1.67;;;9.40;99.90;;;9.17;100.00;99493.38;5135000;28;20043;-68
2023/04/12 05:40:43;;;;;;;3.72;2.30;;;9.30;99.90;;;9.12;100.00;99490.66;5143884;28;20089;-68
2023/04/12 05:43:17;;;;;;;3.17;1.90;;;9.30;99.90;;;9.13;100.00;99481.19;5136058;28;20542;-69
2023/04/12 05:45:51;;;;;;;4.80;2.40;;;9.30;99.90;;;9.10;100.00;99476.78;5139061;28;20047;-70
2023/04/12 05:48:26;;;;;;;5.20;2.50;;;9.30;99.90;;;9.11;100.00;99472.44;5143300;28;20066;-73
2023/04/12 05:51:03;;;;;;;4.78;2.20;;;9.30;99.90;;;9.13;100.00;99465.56;5143872;28;20043;-69
2023/04/12 05:53:39;;;;;;;3.83;2.65;;;9.30;99.90;;;9.16;100.00;99465.63;5125473;28;20035;-69
2023/04/12 05:56:12;;;;;;;3.65;2.25;;;9.30;99.90;;;9.15;100.00;99472.53;5139248;28;20046;-70
2023/04/12 05:58:46;;;;;;;5.82;2.50;;;9.30;99.90;;;9.17;100.00;99467.38;5138348;28;20114;-70
2023/04/12 06:01:20;;;;;;;4.07;2.30;;;9.30;99.90;;;9.13;100.00;99463.84;5143294;28;20050;-70
2023/04/12 06:03:52;;;;;;;3.08;2.08;;;9.30;99.90;;;9.14;100.00;99457.81;5142779;28;20471;-53
2023/04/12 06:06:29;;;;;;;3.05;2.10;;;9.30;99.90;;;9.19;100.00;99455.25;5143870;28;20042;-55
2023/04/12 06:09:03;;;;;;;4.47;3.00;;;9.30;99.90;;;9.18;100.00;99464.78;5142296;28;20075;-53
2023/04/12 06:11:37;;;;;;;3.95;2.53;;;9.30;99.90;;;9.23;100.00;99462.28;5154991;28;20055;-53
2023/04/12 06:14:10;;;;;;;4.68;2.00;;;9.30;99.90;;;9.28;100.00;99460.66;5141647;28;20078;-53
2023/04/12 06:16:42;;;;;;;4.63;2.10;;;9.40;99.90;;;9.36;100.00;99453.00;5142363;28;20043;-53
2023/04/12 06:19:14;;;;;;;7.63;3.33;;;9.40;99.90;;;9.38;100.00;99456.50;5142328;28;20035;-53
2023/04/12 06:21:47;;;;;;;2.47;1.52;;;9.40;99.90;;;9.38;100.00;99448.69;5142575;28;20070;-54
2023/04/12 06:24:21;;;;;;;2.15;1.67;;;9.50;99.90;;;9.49;100.00;99435.03;5142308;28;20097;-54
2023/04/12 06:26:53;;;;;;;2.25;1.35;;;9.60;99.90;;;9.56;100.00;99430.81;5142403;28;20131;-53
2023/04/12 06:29:26;;;;;;;2.63;1.90;;;9.60;99.90;;;9.57;100.00;99436.88;5141531;28;20405;-54
2023/04/12 06:31:58;;;;;;;2.80;1.63;;;9.60;99.90;;;9.56;100.00;99440.34;5140414;28;20045;-52
2023/04/12 06:34:32;;;;;;;1.90;1.70;;;9.60;99.90;;;9.54;100.00;99431.66;5141421;28;20046;-53
2023/04/12 06:37:08;;;;;;;2.38;1.63;;;9.60;99.90;;;9.54;100.00;99431.66;5140838;28;20046;-54
2023/04/12 06:39:41;;;;;;;3.60;2.03;;;9.60;99.90;;;9.49;100.00;99415.94;5143419;28;20042;-52
2023/04/12 06:42:14;;;;;;;1.88;1.58;;;9.60;99.90;;;9.47;100.00;99420.25;5143723;28;20049;-54
2023/04/12 06:44:46;;;;;;;3.05;1.50;;;9.60;99.90;;;9.51;100.00;99411.63;5143051;28;20051;-54
2023/04/12 06:47:18;;;;;;;2.85;1.80;;;9.60;99.90;;;9.51;100.00;99407.31;5141712;28;20046;-54
2023/04/12 06:49:54;;;;;;;1.88;1.20;;;9.60;99.90;;;9.50;100.00;99404.69;5141942;28;20675;-53
2023/04/12 06:52:26;;;;;;;3.92;2.38;;;9.60;99.90;;;9.49;100.00;99388.22;5142279;28;20042;-53
2023/04/12 06:54:59;;;;;;;1.52;1.30;;;9.60;99.90;;;9.43;100.00;99388.09;5142317;28;20562;-53
2023/04/12 06:57:31;;;;;;;4.93;1.95;;;9.60;99.90;;;9.47;100.00;99384.72;5138683;28;20065;-53
2023/04/12 07:00:05;;;;;;;6.38;5.20;;;9.60;99.90;;;9.51;100.00;99373.50;5141644;28;20140;-54
2023/04/12 07:02:37;;;;;;;4.22;2.72;;;9.60;99.90;;;9.57;100.00;99377.94;5141529;28;20045;-53
2023/04/12 07:05:10;;;;;;;2.53;2.30;;;9.60;99.90;;;9.60;100.00;99364.13;5142233;28;20066;-53
2023/04/12 07:07:42;;;;;;;3.38;2.30;;;9.70;99.90;;;9.61;100.00;99364.13;5142286;28;20412;-53
2023/04/12 07:10:17;;;;;;;6.57;3.40;;;9.70;99.90;;;9.65;100.00;99362.44;5141641;28;20046;-55
2023/04/12 07:12:50;;;;;;;3.20;1.80;;;9.70;99.90;;;9.66;100.00;99361.59;5142205;28;20234;-53
2023/04/12 07:15:22;;;;;;;6.43;3.65;;;9.70;99.90;;;9.66;100.00;99354.69;5142771;28;20082;-53
2023/04/12 07:17:55;;;;;;;4.68;3.05;;;9.70;99.90;;;9.65;100.00;99350.34;5142426;28;20050;-52
2023/04/12 07:20:27;;;;;;;3.45;1.80;;;9.70;99.90;;;9.64;100.00;99343.34;5142774;28;20213;-53
2023/04/12 07:22:59;;;;;;;3.92;1.90;;;9.70;99.90;;;9.67;100.00;99348.63;5143263;28;20035;-53
2023/04/12 07:25:33;;;;;;;3.58;1.42;;;9.70;99.90;;;9.71;100.00;99336.50;5127665;28;20431;-53
2023/04/12 07:28:06;;;;;;;4.50;2.97;;;9.70;99.90;;;9.69;100.00;99333.91;5132598;28;20062;-54
2023/04/12 07:30:39;;;;;;;2.45;1.95;;;9.80;99.90;;;9.70;100.00;99324.34;5128387;28;20046;-53
2023/04/12 07:33:12;;;;;;;4.70;2.00;;;9.80;99.90;;;9.67;100.00;99314.78;5136308;28;20055;-53
2023/04/12 07:35:44;;;;;;;6.03;3.42;;;9.80;99.90;;;9.73;100.00;99311.41;5136586;28;20066;-53
2023/04/12 07:38:16;;;;;;;4.85;2.75;;;9.80;99.90;;;9.76;100.00;99308.84;5141787;28;20051;-53
2023/04/12 07:40:49;;;;;;;3.92;3.30;;;9.80;99.90;;;9.82;100.00;99292.44;5141770;28;20041;-53
2023/04/12 07:43:21;;;;;;;4.70;3.00;;;9.90;99.90;;;9.85;100.00;99288.16;5140814;28;20097;-53
2023/04/12 07:45:55;;;;;;;1.33;1.20;;;9.90;99.90;;;9.90;100.00;99286.47;5141596;28;20412;-53
2023/04/12 07:48:27;;;;;;;3.05;1.95;;;9.90;99.90;;;9.96;100.00;99278.75;5141498;28;20046;-54
2023/04/12 07:50:59;;;;;;;4.75;1.63;;;10.00;99.90;;;10.01;100.00;99274.50;5142706;28;20039;-53
2023/04/12 07:53:31;;;;;;;3.38;1.80;;;10.10;99.90;;;10.11;100.00;99274.63;5142247;28;20058;-53
2023/04/12 07:56:05;;;;;;;1.75;1.48;;;10.10;99.90;;;10.18;100.00;99277.31;5142510;28;20042;-53
2023/04/12 07:58:38;;;;;;;3.05;2.03;;;10.20;99.90;;;10.17;100.00;99272.06;5134329;28;20035;-54
2023/04/12 08:01:13;;;;;;;1.20;1.08;;;10.20;99.90;;;10.19;100.00;99275.59;5134243;28;20150;-53
2023/04/12 08:03:45;;;;;;;1.40;1.30;;;10.20;99.90;;;10.17;100.00;99272.06;5138359;28;20046;-53
2023/04/12 08:06:17;;;;;;;1.98;1.40;;;10.20;99.90;;;10.15;100.00;99271.19;5141958;28;20436;-53
2023/04/12 08:08:49;;;;;;;2.58;1.52;;;10.20;99.90;;;10.13;100.00;99278.09;5141467;28;20034;-53
2023/04/12 08:11:22;;;;;;;3.33;1.77;;;10.20;99.90;;;10.16;100.00;99272.94;5132470;28;20051;-54
2023/04/12 08:13:55;;;;;;;4.70;3.15;;;10.20;99.90;;;10.16;100.00;99262.50;5139400;28;20046;-54
2023/04/12 08:16:27;;;;;;;2.50;1.98;;;10.20;99.90;;;10.26;100.00;99269.63;5142517;28;20054;-51
2023/04/12 08:18:59;;;;;;;3.00;2.50;;;10.30;99.90;;;10.28;100.00;99258.34;5141586;28;20109;-52
2023/04/12 08:21:32;;;;;;;3.13;1.98;;;10.30;99.90;;;10.29;100.00;99262.69;5143199;28;20043;-52
2023/04/12 08:24:05;;;;;;;2.90;1.88;;;10.30;99.90;;;10.30;100.00;99266.19;5142959;28;20094;-53
2023/04/12 08:26:38;;;;;;;2.58;2.10;;;10.30;99.90;;;10.33;100.00;99258.41;5128134;28;20061;-52
2023/04/12 08:29:11;;;;;;;2.75;1.70;;;10.40;99.90;;;10.36;100.00;99266.25;5147851;28;20046;-53
2023/04/12 08:31:43;;;;;;;1.58;1.40;;;10.40;99.90;;;10.41;100.00;99276.72;5142444;28;20043;-52
2023/04/12 08:34:15;;;;;;;4.35;3.55;;;10.40;99.90;;;10.46;100.00;99257.69;5142998;28;20050;-51
2023/04/12 08:36:47;;;;;;;1.88;1.58;;;10.40;99.90;;;10.48;100.00;99242.94;5142910;28;20066;-50
2023/04/12 08:39:19;;;;;;;2.75;2.10;;;10.50;99.90;;;10.49;100.00;99229.06;5142904;28;20034;-53
2023/04/12 08:41:54;;;;;;;2.00;1.80;;;10.50;99.90;;;10.56;100.00;99233.50;5143178;28;20051;-51
2023/04/12 08:44:36;;;;;;;2.30;1.40;;;10.60;99.90;;;10.73;100.00;99245.81;5142882;28;20042;-52
2023/04/12 08:47:11;;;;;;;1.60;1.20;;;10.70;99.90;;;10.80;100.00;99247.59;5142625;28;20130;-52
2023/04/12 08:49:43;;;;;;;1.33;0.90;;;10.70;99.90;;;10.87;100.00;99245.06;5142619;28;20126;-54
2023/04/12 08:52:15;;;;;;;0.93;0.90;;;10.80;99.90;;;10.88;100.00;99245.94;5145162;28;20043;-52
2023/04/12 08:54:47;;;;;;;2.13;0.85;;;10.80;99.90;;;10.93;100.00;99249.47;5146761;28;20047;-53
2023/04/12 08:57:21;;;;;;;1.30;1.00;;;10.80;99.90;;;10.92;100.00;99239.03;5146676;28;20118;-52
2023/04/12 08:59:54;;;;;;;1.10;1.00;;;10.90;99.90;;;10.91;100.00;99240.75;5146478;28;20053;-54
2023/04/12 09:02:27;;;;;;;1.85;1.30;;;10.80;99.90;;;10.96;100.00;99241.69;5146734;28;20050;-53
2023/04/12 09:04:59;;;;;;;1.95;1.10;;;10.90;99.90;;;11.01;100.00;99245.19;5146681;28;20047;-52
2023/04/12 09:07:31;;;;;;;2.60;1.15;;;11.00;99.90;;;11.06;100.00;99233.06;5145468;28;20055;-53
2023/04/12 09:10:04;;;;;;;2.85;1.35;;;11.00;99.90;;;11.16;100.00;99235.75;5146542;28;20039;-52
2023/04/12 09:12:46;;;;;;;1.23;1.08;;;11.00;99.90;;;11.29;100.00;99224.56;5146475;28;20097;-53
2023/04/12 09:15:18;;;;;;;1.77;1.30;;;11.20;99.90;;;11.30;100.00;99219.34;5146293;28;20054;-52
2023/04/12 09:18:05;;;;;;;1.52;1.30;;;11.20;99.90;;;11.27;100.00;99229.72;5146248;28;20050;-53
2023/04/12 09:20:39;;;;;;;3.85;1.38;;;11.20;99.90;;;11.30;100.00;99218.47;5146274;28;20436;-53
2023/04/12 09:23:19;;;;;;;1.23;1.13;;;11.20;99.90;;;11.39;100.00;99219.38;5146302;28;20106;-52
2023/04/12 09:25:52;;;;;;;1.63;1.17;;;11.30;99.90;;;11.41;100.00;99215.06;5146265;28;20113;-53
2023/04/12 09:28:28;;;;;;;1.20;1.10;;;11.30;99.90;;;11.48;100.00;99213.38;5146067;28;20109;-52
2023/04/12 09:31:02;;;;;;;1.52;1.40;;;11.40;99.90;;;11.54;100.00;99216.03;5146048;28;20066;-54
2023/04/12 09:33:37;;;;;;;3.25;2.08;;;11.40;99.90;;;11.57;100.00;99208.19;5146295;28;20133;-53
2023/04/12 09:36:13;;;;;;;2.20;1.70;;;11.50;99.90;;;11.65;100.00;99205.63;5146135;28;20054;-53
2023/04/12 09:39:01;;;;;;;1.70;1.40;;;11.50;99.90;;;11.71;100.00;99215.22;5138668;28;20408;-54
2023/04/12 09:41:33;;;;;;;2.25;1.15;;;11.60;99.90;;;11.73;100.00;99214.34;5142737;28;20040;-53
2023/04/12 09:44:07;;;;;;;2.28;1.30;;;11.60;99.90;;;11.71;100.00;99215.22;5130052;28;20078;-53
2023/04/12 09:46:51;;;;;;;1.65;1.40;;;11.60;99.90;;;11.79;100.00;99206.56;5145806;28;20045;-54
2023/04/12 09:49:38;;;;;;;1.65;1.45;;;11.70;99.90;;;11.77;100.00;99207.44;5145903;28;20043;-52
2023/04/12 09:52:12;;;;;;;1.38;1.27;;;11.70;99.90;;;11.79;100.00;99208.28;5145856;28;20047;-52
2023/04/12 09:54:47;;;;;;;4.35;2.30;;;11.70;99.90;;;11.78;100.00;99206.56;5145793;28;20049;-53
2023/04/12 09:57:23;;;;;;;1.67;1.30;;;11.70;99.90;;;11.95;100.00;99205.81;5144278;28;20051;-52
2023/04/12 10:00:02;;;;;;;2.22;1.30;;;11.90;99.90;;;11.98;100.00;99199.72;5145528;28;20515;-52
2023/04/12 10:02:49;;;;;;;2.15;1.30;;;11.90;99.90;;;12.02;100.00;99196.25;5144395;28;20511;-52
2023/04/12 10:05:24;;;;;;;1.55;1.30;;;11.90;99.90;;;12.08;100.00;99196.28;5145322;28;20043;-51
2023/04/12 10:07:57;;;;;;;1.58;1.25;;;11.90;99.90;;;12.14;100.00;99179.75;5145242;28;20134;-54
2023/04/12 10:10:31;;;;;;;2.47;1.30;;;12.00;99.90;;;12.08;100.00;99178.00;5143810;28;20499;-52
2023/04/12 10:13:03;;;;;;;1.70;1.02;;;11.90;99.90;;;12.15;100.00;99171.91;5145822;28;20070;-52
2023/04/12 10:15:37;;;;;;;1.08;1.00;;;12.00;99.90;;;12.22;100.00;99167.59;5145550;28;20070;-52
2023/04/12 10:18:14;;;;;;;1.00;0.90;;;12.00;99.90;;;12.29;100.00;99181.53;5168125;23;20751;-58
2023/04/12 10:20:47;;;;;;;1.48;0.90;;;12.10;99.90;;;12.33;100.00;99178.94;5146607;28;20051;-58
2023/04/12 10:23:22;;;;;;;1.17;1.13;;;12.10;99.90;;;12.45;100.00;99165.00;5142539;28;20149;-59
2023/04/12 10:25:55;;;;;;;1.73;1.30;;;12.20;99.90;;;12.64;100.00;99156.31;5144638;28;20038;-58
2023/04/12 10:28:28;;;;;;;1.30;1.10;;;12.40;99.90;;;12.85;100.00;99151.97;5130468;28;20062;-58
2023/04/12 10:31:29;;;;;;;1.85;1.40;;;12.50;99.90;;;12.98;100.00;99148.47;5140223;28;20046;-59
2023/04/12 10:34:02;;;;;;;1.20;1.10;;;12.60;99.90;;;13.25;100.00;99144.97;5144113;28;20039;-60
2023/04/12 10:36:54;;;;;;;2.63;1.55;;;12.90;99.90;;;13.52;100.00;99141.41;5140704;28;20058;-59
2023/04/12 10:39:42;;;;;;;2.03;1.30;;;13.10;99.90;;;13.66;100.00;99136.97;5140961;28;20045;-59
2023/04/12 10:42:23;;;;;;;1.30;1.20;;;13.30;99.90;;;13.99;100.00;99145.56;5143667;28;20455;-58
2023/04/12 10:44:57;;;;;;;1.58;1.15;;;13.50;99.90;;;14.12;100.00;99152.47;5137688;28;20566;-58
2023/04/12 10:48:00;;;;;;;1.33;1.13;;;13.70;99.90;;;13.98;100.00;99154.31;5142091;28;20062;-58
2023/04/12 10:50:34;;;;;;;0.77;0.73;;;13.70;99.90;;;13.96;100.00;99145.59;5139504;28;20388;-59
2023/04/12 10:53:23;;;;;;;1.67;1.50;;;13.70;99.90;;;13.77;100.00;99145.66;5142208;28;20062;-58